Time;durP1;ratioP1;P1;durP2;ratioP2;P2;SDS_P1;SDS_P2;PMS_P1;PMS_P2;Temp;Humidity;BMP_temperature;BMP_pressure;BME280_temperature;BME280_humidity;BME280_pressure;Samples;Min_cycle;Max_cycle;Signal;HPM_P1;HPM_P2
2023/03/24 00:04:31;;;;;;;6.55;1.80;;;11.50;99.90;;;;;;6338371;22;20384;-84
2023/03/24 00:07:00;;;;;;;4.20;1.80;;;11.50;99.90;;;;;;6374818;22;20010;-88
2023/03/24 00:09:29;;;;;;;5.03;1.80;;;11.60;99.90;;;;;;6348438;22;20014;-89
2023/03/24 00:11:56;;;;;;;6.13;2.22;;;11.50;99.90;;;;;;6349235;22;20081;-88
2023/03/24 00:14:22;;;;;;;4.25;1.58;;;11.60;99.90;;;;;;6348999;22;20025;-88
2023/03/24 00:16:49;;;;;;;5.82;2.28;;;11.60;99.90;;;;;;6348866;22;20009;-83
2023/03/24 00:19:15;;;;;;;5.38;2.25;;;11.60;99.90;;;;;;6348940;22;20018;-84
2023/03/24 00:21:42;;;;;;;4.50;1.83;;;11.60;99.90;;;;;;6368141;22;20195;-85
2023/03/24 00:24:10;;;;;;;4.38;1.50;;;11.50;99.90;;;;;;6245533;22;20024;-83
2023/03/24 00:26:38;;;;;;;5.15;1.75;;;11.60;99.90;;;;;;6219916;22;20015;-82
2023/03/24 00:29:06;;;;;;;5.78;1.52;;;11.60;99.90;;;;;;6219891;22;20329;-82
2023/03/24 00:31:32;;;;;;;5.50;1.50;;;11.60;99.90;;;;;;6245134;22;20103;-83
2023/03/24 00:33:58;;;;;;;5.63;1.92;;;11.60;99.90;;;;;;6245157;22;20055;-84
2023/03/24 00:36:29;;;;;;;4.68;1.88;;;11.60;99.90;;;;;;6245190;22;20026;-86
2023/03/24 00:38:58;;;;;;;7.18;1.98;;;11.60;99.90;;;;;;6194915;22;20015;-83
2023/03/24 00:51:57;;;;;;;5.10;1.67;;;11.60;99.90;;;;;;6387757;22;20381;-90
2023/03/24 00:54:26;;;;;;;3.72;1.42;;;11.50;99.90;;;;;;6221175;22;20025;-92
2023/03/24 00:59:28;;;;;;;5.20;1.67;;;11.60;99.90;;;;;;6401932;22;20014;-92
2023/03/24 01:01:55;;;;;;;4.82;1.50;;;11.50;99.90;;;;;;6242083;22;20511;-90
2023/03/24 01:04:46;;;;;;;5.38;1.60;;;11.50;99.90;;;;;;6242862;22;20018;-92
2023/03/24 01:07:16;;;;;;;5.22;1.73;;;11.50;99.90;;;;;;6266955;22;20014;-89
2023/03/24 01:09:50;;;;;;;4.00;1.27;;;11.50;99.90;;;;;;6218598;22;20021;-91
2023/03/24 01:12:20;;;;;;;5.32;1.38;;;11.50;99.90;;;;;;6244730;22;20097;-95
2023/03/24 01:14:46;;;;;;;6.50;1.92;;;11.50;99.90;;;;;;6245946;22;20384;-89
2023/03/24 01:17:12;;;;;;;4.00;1.60;;;11.50;99.90;;;;;;6234999;22;20018;-90
2023/03/24 01:24:03;;;;;;;2.80;1.13;;;11.50;99.90;;;;;;6409622;22;20052;-92
2023/03/24 01:26:33;;;;;;;4.35;1.58;;;11.50;99.90;;;;;;6402222;22;20014;-89
2023/03/24 01:29:02;;;;;;;3.15;1.35;;;11.50;99.90;;;;;;6193601;22;20018;-92
2023/03/24 01:31:28;;;;;;;4.20;1.60;;;11.50;99.90;;;;;;6241582;22;20010;-90
2023/03/24 01:33:53;;;;;;;4.80;1.88;;;11.50;99.90;;;;;;6216401;22;20096;-91
2023/03/24 01:36:31;;;;;;;5.37;1.30;;;11.50;99.90;;;;;;6348417;22;20014;-94
2023/03/24 01:39:00;;;;;;;3.95;1.60;;;11.50;99.90;;;;;;6242867;22;20036;-95
2023/03/24 01:41:47;;;;;;;3.30;1.50;;;11.50;99.90;;;;;;6241773;22;20017;-90
2023/03/24 01:44:27;;;;;;;;;;;11.50;99.90;;;;;;6241984;22;20050;-94
2023/03/24 01:46:54;;;;;;;5.20;1.88;;;11.50;99.90;;;;;;6242057;22;19914;-91
2023/03/24 01:49:21;;;;;;;3.42;1.30;;;11.50;99.90;;;;;;6241845;22;20092;-92
2023/03/24 01:51:48;;;;;;;;;;;11.50;99.90;;;;;;6241765;22;20098;-91
2023/03/24 01:54:28;;;;;;;4.45;1.50;;;11.50;99.90;;;;;;6266973;22;20075;-94
2023/03/24 01:57:09;;;;;;;4.28;1.45;;;11.50;99.90;;;;;;6238068;22;20021;-89
2023/03/24 01:59:40;;;;;;;3.30;1.38;;;11.50;99.90;;;;;;6241517;22;20045;-84
2023/03/24 02:02:08;;;;;;;3.47;1.30;;;11.50;99.90;;;;;;6241364;22;20039;-82
2023/03/24 02:04:40;;;;;;;4.20;1.38;;;11.40;99.90;;;;;;6266902;22;20340;-86
2023/03/24 02:07:30;;;;;;;3.25;1.50;;;11.50;99.90;;;;;;6268478;22;20011;-85
2023/03/24 02:10:13;;;;;;;3.15;1.20;;;11.50;99.90;;;;;;6242552;22;20017;-83
2023/03/24 02:12:45;;;;;;;5.35;1.20;;;11.50;99.90;;;;;;6221516;22;20016;-87
2023/03/24 02:15:52;;;;;;;4.32;1.30;;;11.50;99.90;;;;;;6243291;22;20018;-92
2023/03/24 02:19:17;;;;;;;3.75;1.00;;;11.50;99.90;;;;;;6271949;22;20026;-93
2023/03/24 02:21:48;;;;;;;2.40;1.05;;;11.50;99.90;;;;;;6256422;22;20122;-92
2023/03/24 02:24:38;;;;;;;3.33;1.45;;;11.50;99.90;;;;;;6255545;22;20043;-92
2023/03/24 02:27:03;;;;;;;3.30;1.10;;;11.50;99.90;;;;;;6255545;22;20013;-90
2023/03/24 02:30:10;;;;;;;2.03;1.10;;;11.50;99.90;;;;;;6249331;22;20020;-94
2023/03/24 02:32:57;;;;;;;4.88;1.27;;;11.50;99.90;;;;;;6248555;22;20053;-89
2023/03/24 02:35:41;;;;;;;3.80;1.30;;;11.50;99.90;;;;;;6248128;22;20093;-91
2023/03/24 02:38:33;;;;;;;5.13;1.50;;;11.50;99.90;;;;;;6247949;22;20018;-91
2023/03/24 02:41:10;;;;;;;2.05;1.10;;;11.50;99.90;;;;;;6245730;22;20143;-91
2023/03/24 02:43:36;;;;;;;3.25;1.20;;;11.50;99.90;;;;;;6244488;22;20014;-93
2023/03/24 02:46:12;;;;;;;4.38;1.83;;;11.60;99.90;;;;;;6243844;22;20028;-89
2023/03/24 02:48:59;;;;;;;3.28;1.30;;;11.50;99.90;;;;;;6244343;22;20086;-93
2023/03/24 02:51:35;;;;;;;5.40;1.77;;;11.50;99.90;;;;;;6244443;22;20009;-92
2023/03/24 02:54:26;;;;;;;3.83;1.40;;;11.50;99.90;;;;;;6243383;22;20014;-92
2023/03/24 02:57:07;;;;;;;3.80;1.77;;;11.50;99.90;;;;;;6243456;22;20014;-95
2023/03/24 02:59:48;;;;;;;4.28;1.50;;;11.60;99.90;;;;;;6243593;22;20018;-93
2023/03/24 03:02:25;;;;;;;2.88;1.17;;;11.60;99.90;;;;;;6243238;22;20096;-89
2023/03/24 03:04:59;;;;;;;5.30;1.40;;;11.60;99.90;;;;;;6243839;22;20014;-89
2023/03/24 03:11:26;;;;;;;4.22;1.60;;;11.60;99.90;;;;;;6211565;22;20020;-94
2023/03/24 03:14:19;;;;;;;4.07;1.40;;;11.60;99.90;;;;;;6135788;23;20016;-87
2023/03/24 03:16:52;;;;;;;3.55;1.27;;;11.60;99.90;;;;;;6184576;23;20425;-90
2023/03/24 03:19:25;;;;;;;3.95;1.40;;;11.60;99.90;;;;;;6159987;22;20020;-88
2023/03/24 03:22:13;;;;;;;3.15;1.35;;;11.60;99.90;;;;;;6159957;22;20091;-88
2023/03/24 03:24:42;;;;;;;3.28;1.48;;;11.60;99.90;;;;;;6184591;23;20457;-88
2023/03/24 03:27:27;;;;;;;4.18;1.60;;;11.60;99.90;;;;;;6160510;22;20024;-88
2023/03/24 03:30:08;;;;;;;3.40;1.48;;;11.60;99.90;;;;;;6159605;23;20058;-86
2023/03/24 03:32:38;;;;;;;4.53;1.40;;;11.70;99.90;;;;;;6184265;23;20012;-89
2023/03/24 03:35:22;;;;;;;2.42;1.08;;;11.70;99.90;;;;;;6160019;22;20075;-87
2023/03/24 03:38:09;;;;;;;2.45;0.98;;;11.70;99.90;;;;;;6210183;23;20408;-89
2023/03/24 03:40:55;;;;;;;2.92;1.10;;;11.80;99.90;;;;;;6197853;22;20021;-88
2023/03/24 03:43:22;;;;;;;2.38;1.00;;;11.80;99.90;;;;;;6403781;22;20014;-93
2023/03/24 03:45:48;;;;;;;2.97;1.25;;;11.70;99.90;;;;;;6243324;22;20014;-93
2023/03/24 03:48:15;;;;;;;3.95;1.00;;;11.70;99.90;;;;;;6403982;22;20013;-88
2023/03/24 03:50:41;;;;;;;3.03;1.17;;;11.60;99.90;;;;;;6245111;22;20096;-89
2023/03/24 03:53:08;;;;;;;4.78;1.15;;;11.50;99.90;;;;;;6218229;22;20017;-87
2023/03/24 03:55:34;;;;;;;;;;;11.50;99.90;;;;;;6404715;22;20092;-90
2023/03/24 03:58:04;;;;;;;4.00;0.95;;;11.40;99.90;;;;;;6218623;22;20323;-90
2023/03/24 04:00:31;;;;;;;2.30;0.93;;;11.40;99.90;;;;;;6268192;22;20014;-88
2023/03/24 04:03:21;;;;;;;4.50;1.00;;;11.30;99.90;;;;;;6217995;22;20070;-87
2023/03/24 04:05:52;;;;;;;5.22;1.10;;;11.30;99.90;;;;;;6268343;22;20016;-90
2023/03/24 04:08:36;;;;;;;2.85;0.70;;;11.20;99.90;;;;;;6268009;22;20014;-87
2023/03/24 04:11:39;;;;;;;2.92;0.50;;;11.20;99.90;;;;;;6403958;22;20021;-88
2023/03/24 04:14:31;;;;;;;2.45;0.55;;;11.10;99.90;;;;;;6242686;22;20093;-91
2023/03/24 04:17:28;;;;;;;2.15;0.60;;;11.10;99.90;;;;;;6268206;22;20049;-89
2023/03/24 04:20:18;;;;;;;6.72;0.50;;;11.10;99.90;;;;;;6267536;22;20062;-86
2023/03/24 04:23:02;;;;;;;1.85;0.50;;;11.00;99.90;;;;;;6242066;22;20024;-88
2023/03/24 04:25:55;;;;;;;1.83;0.50;;;10.90;99.90;;;;;;6402732;22;20499;-87
2023/03/24 04:28:36;;;;;;;3.10;0.30;;;10.90;99.90;;;;;;6402436;22;20025;-88
2023/03/24 04:31:25;;;;;;;2.90;0.68;;;10.90;99.90;;;;;;6242165;22;20055;-88
2023/03/24 04:34:02;;;;;;;1.77;0.52;;;10.80;99.90;;;;;;6241909;22;20097;-87
2023/03/24 04:36:49;;;;;;;2.95;0.55;;;10.80;99.90;;;;;;6402951;22;20049;-86
2023/03/24 04:39:26;;;;;;;5.88;0.85;;;10.70;99.90;;;;;;6402789;22;20014;-91
2023/03/24 04:41:55;;;;;;;2.67;0.35;;;10.70;99.90;;;;;;6402671;22;20022;-86
2023/03/24 04:44:22;;;;;;;1.45;0.40;;;10.60;99.90;;;;;;6403112;22;20071;-88
2023/03/24 04:46:50;;;;;;;2.85;0.40;;;10.60;99.90;;;;;;6242446;22;20427;-90
2023/03/24 04:49:39;;;;;;;3.30;0.30;;;10.50;99.90;;;;;;6243178;22;20097;-89
2023/03/24 04:52:07;;;;;;;2.22;0.40;;;10.40;99.90;;;;;;6267606;22;20010;-90
2023/03/24 04:54:33;;;;;;;2.35;0.40;;;10.40;99.90;;;;;;6242648;22;20096;-87
2023/03/24 04:57:00;;;;;;;2.70;0.47;;;10.30;99.90;;;;;;6267206;22;20041;-90
2023/03/24 04:59:32;;;;;;;2.88;0.60;;;10.30;99.90;;;;;;6241933;22;20287;-90
2023/03/24 05:02:01;;;;;;;3.78;0.43;;;10.30;99.90;;;;;;6267174;22;20051;-86
2023/03/24 05:04:35;;;;;;;5.28;0.50;;;10.20;99.90;;;;;;6267181;22;20021;-90
2023/03/24 05:07:02;;;;;;;1.10;0.30;;;10.20;99.90;;;;;;6242249;22;20018;-89
2023/03/24 05:09:30;;;;;;;4.38;0.70;;;10.10;99.90;;;;;;6217196;22;20018;-89
2023/03/24 05:11:56;;;;;;;2.25;0.40;;;10.10;99.90;;;;;;6241534;22;20085;-90
2023/03/24 05:14:28;;;;;;;4.63;0.52;;;10.10;99.90;;;;;;6216868;22;20470;-88
2023/03/24 05:16:55;;;;;;;1.98;0.40;;;10.00;99.90;;;;;;6241447;22;20066;-89
2023/03/24 05:19:40;;;;;;;3.53;0.70;;;10.00;99.90;;;;;;6241117;22;20021;-89
2023/03/24 05:22:24;;;;;;;2.30;0.52;;;10.00;99.90;;;;;;6216651;22;20017;-88
2023/03/24 05:24:50;;;;;;;2.38;0.70;;;10.00;99.90;;;;;;6183631;22;20031;-88
2023/03/24 05:27:16;;;;;;;5.07;0.97;;;9.90;99.90;;;;;;6239081;23;20352;-87
2023/03/24 05:29:41;;;;;;;3.30;0.50;;;9.90;99.90;;;;;;6189558;23;20052;-87
2023/03/24 05:32:07;;;;;;;4.53;0.50;;;9.90;99.90;;;;;;6239503;23;20472;-87
2023/03/24 05:34:33;;;;;;;3.10;0.50;;;9.90;99.90;;;;;;6215114;22;20031;-88
2023/03/24 05:36:58;;;;;;;4.13;1.00;;;9.80;99.90;;;;;;6215813;23;20016;-88
2023/03/24 05:39:24;;;;;;;5.17;0.60;;;9.90;99.90;;;;;;6214864;23;20103;-83
2023/03/24 05:41:50;;;;;;;2.53;0.50;;;9.90;99.90;;;;;;6241869;22;20016;-93
2023/03/24 05:44:15;;;;;;;3.40;0.60;;;9.90;99.90;;;;;;6215418;23;20016;-87
2023/03/24 05:46:41;;;;;;;3.03;0.60;;;9.90;99.90;;;;;;6215691;23;20064;-86
2023/03/24 05:49:07;;;;;;;2.80;0.60;;;9.90;99.90;;;;;;6190634;22;20016;-88
2023/03/24 05:51:55;;;;;;;4.57;0.90;;;10.00;99.90;;;;;;6214447;23;20027;-85
2023/03/24 05:54:21;;;;;;;2.63;0.70;;;10.00;99.90;;;;;;6212858;23;20027;-89
2023/03/24 05:56:47;;;;;;;4.05;0.70;;;10.00;99.90;;;;;;6212902;23;20020;-85
2023/03/24 05:59:13;;;;;;;6.20;1.03;;;10.00;99.90;;;;;;6213990;23;20016;-90
2023/03/24 06:01:41;;;;;;;3.08;0.70;;;10.00;99.90;;;;;;6213849;23;20024;-87
2023/03/24 06:04:10;;;;;;;4.65;1.30;;;10.00;99.90;;;;;;6241140;23;20039;-92
2023/03/24 06:06:37;;;;;;;3.28;1.08;;;10.00;99.90;;;;;;6240511;23;20012;-87
2023/03/24 06:09:03;;;;;;;5.30;0.90;;;10.10;99.90;;;;;;6239343;23;20341;-92
2023/03/24 06:11:30;;;;;;;;;;;10.10;99.90;;;;;;6216069;23;20031;-88
2023/03/24 06:13:59;;;;;;;5.13;0.98;;;10.10;99.90;;;;;;6239703;23;19996;-86
2023/03/24 06:16:28;;;;;;;4.47;0.90;;;10.10;99.90;;;;;;6239788;23;20352;-88
2023/03/24 06:18:54;;;;;;;3.30;0.90;;;10.10;99.90;;;;;;6241191;23;20024;-90
2023/03/24 06:21:35;;;;;;;5.25;0.80;;;10.10;99.90;;;;;;6190181;23;20082;-87
2023/03/24 06:24:02;;;;;;;4.88;0.93;;;10.10;99.90;;;;;;6189248;23;20018;-90
2023/03/24 06:26:29;;;;;;;;;;;10.10;99.90;;;;;;6240222;23;20020;-85
2023/03/24 06:28:56;;;;;;;5.33;0.70;;;10.10;99.90;;;;;;6240719;23;19919;-89
2023/03/24 06:31:52;;;;;;;5.50;1.00;;;10.10;99.90;;;;;;6240111;23;20016;-91
2023/03/24 06:37:59;;;;;;;1.48;0.47;;;10.10;99.90;;;;;;6240873;23;20035;-86
2023/03/24 06:40:25;;;;;;;4.27;0.60;;;10.10;99.90;;;;;;6214170;23;20016;-84
2023/03/24 06:42:51;;;;;;;2.40;0.90;;;10.10;99.90;;;;;;6189166;23;20023;-83
2023/03/24 06:45:16;;;;;;;3.17;0.80;;;10.10;99.90;;;;;;6240836;23;20016;-84
2023/03/24 06:47:42;;;;;;;4.90;1.00;;;10.10;99.90;;;;;;6238873;23;20054;-82
2023/03/24 06:50:09;;;;;;;4.37;0.93;;;10.10;99.90;;;;;;6240559;23;20017;-83
2023/03/24 06:52:35;;;;;;;5.32;0.70;;;10.10;99.90;;;;;;6214903;23;20251;-83
2023/03/24 06:55:01;;;;;;;3.00;0.63;;;10.00;99.90;;;;;;6215450;23;20438;-86
2023/03/24 06:57:27;;;;;;;3.35;0.70;;;10.10;99.90;;;;;;6215367;23;20059;-82
2023/03/24 06:59:53;;;;;;;4.65;1.15;;;10.00;99.90;;;;;;6241073;23;20027;-84
2023/03/24 07:02:20;;;;;;;3.88;0.90;;;10.10;99.90;;;;;;6240626;23;20436;-83
2023/03/24 07:04:46;;;;;;;3.33;0.82;;;10.10;99.90;;;;;;6241496;22;20053;-83
2023/03/24 07:07:12;;;;;;;3.05;0.70;;;10.10;99.90;;;;;;6191229;23;20333;-82
2023/03/24 07:09:38;;;;;;;5.72;0.93;;;10.10;99.90;;;;;;6240321;23;20015;-83
2023/03/24 07:12:07;;;;;;;3.65;0.68;;;10.10;99.90;;;;;;6242019;23;20070;-82
2023/03/24 07:14:33;;;;;;;6.55;1.70;;;10.10;99.90;;;;;;6215268;23;20020;-85
2023/03/24 07:17:03;;;;;;;3.67;0.98;;;10.10;99.90;;;;;;6240445;23;20020;-83
2023/03/24 07:19:32;;;;;;;8.75;1.88;;;10.10;99.90;;;;;;6240512;23;20009;-81
2023/03/24 07:21:58;;;;;;;4.57;0.93;;;10.10;99.90;;;;;;6190040;22;20043;-81
2023/03/24 07:24:23;;;;;;;3.17;0.80;;;10.10;99.90;;;;;;6240451;23;20441;-88
2023/03/24 07:26:49;;;;;;;3.37;0.73;;;10.10;99.90;;;;;;6215019;23;20020;-84
2023/03/24 07:29:15;;;;;;;2.60;0.70;;;10.10;99.90;;;;;;6190404;23;20016;-85
2023/03/24 07:31:40;;;;;;;7.67;0.67;;;10.10;99.90;;;;;;6215433;23;20020;-86
2023/03/24 07:34:07;;;;;;;4.10;1.10;;;10.20;99.90;;;;;;6190415;23;20015;-84
2023/03/24 07:36:39;;;;;;;3.88;0.90;;;10.20;99.90;;;;;;6190896;23;20016;-85
2023/03/24 07:39:05;;;;;;;4.50;0.70;;;10.10;99.90;;;;;;6215162;23;20524;-84
2023/03/24 07:41:31;;;;;;;2.15;1.00;;;10.20;99.90;;;;;;6215427;23;20087;-88
2023/03/24 07:43:57;;;;;;;6.60;0.67;;;10.20;99.90;;;;;;6215308;23;20081;-86
2023/03/24 07:46:25;;;;;;;5.20;0.70;;;10.20;99.90;;;;;;6213610;23;20012;-86
2023/03/24 07:49:10;;;;;;;4.78;0.90;;;10.20;99.90;;;;;;6347832;22;20251;-85
2023/03/24 07:51:38;;;;;;;10.93;1.10;;;10.20;99.90;;;;;;6240310;23;20069;-83
2023/03/24 07:54:03;;;;;;;5.68;0.85;;;10.20;99.90;;;;;;6190193;23;20065;-85
2023/03/24 07:56:29;;;;;;;5.17;0.90;;;10.30;99.90;;;;;;6240332;23;20378;-82
2023/03/24 07:58:56;;;;;;;5.23;0.70;;;10.30;99.90;;;;;;6240264;23;20024;-84
2023/03/24 08:01:21;;;;;;;;;;;10.30;99.90;;;;;;6215778;23;20043;-83
2023/03/24 08:03:47;;;;;;;6.63;1.77;;;10.30;99.90;;;;;;6240172;22;19916;-84
2023/03/24 08:08:49;;;;;;;6.78;0.90;;;10.40;99.90;;;;;;6323052;22;20034;-91
2023/03/24 08:11:15;;;;;;;9.00;1.30;;;10.40;99.90;;;;;;6323934;22;20050;-90
2023/03/24 08:13:40;;;;;;;2.60;0.93;;;10.50;99.90;;;;;;6375815;22;20038;-89
2023/03/24 08:20:33;;;;;;;11.05;1.77;;;10.50;99.90;;;;;;6407028;22;20020;-93
2023/03/24 08:23:03;;;;;;;7.30;1.48;;;10.60;99.90;;;;;;6374156;22;20381;-84
2023/03/24 08:25:31;;;;;;;5.22;0.80;;;10.60;99.90;;;;;;6348035;22;20087;-84
2023/03/24 08:27:57;;;;;;;5.07;0.88;;;10.60;99.90;;;;;;6348521;22;20018;-92
2023/03/24 08:30:25;;;;;;;4.63;0.80;;;10.60;99.90;;;;;;6374277;22;20116;-82
2023/03/24 08:32:57;;;;;;;8.00;1.80;;;10.70;99.90;;;;;;6373086;22;20097;-83
2023/03/24 08:35:30;;;;;;;4.97;1.42;;;10.70;99.90;;;;;;6373394;22;20033;-86
2023/03/24 08:37:58;;;;;;;7.63;1.40;;;10.80;99.90;;;;;;6372994;22;20100;-82
2023/03/24 08:40:24;;;;;;;2.50;0.98;;;10.90;99.90;;;;;;6348181;22;20399;-83
2023/03/24 08:42:51;;;;;;;;;;;10.90;99.90;;;;;;6374869;22;20020;-85
2023/03/24 08:45:20;;;;;;;6.53;0.63;;;10.90;99.90;;;;;;6374564;22;19918;-85
2023/03/24 08:47:48;;;;;;;6.28;0.95;;;10.90;99.90;;;;;;6374243;22;20236;-82
2023/03/24 08:50:13;;;;;;;6.88;1.35;;;11.10;99.90;;;;;;6374600;22;20328;-83
2023/03/24 08:52:40;;;;;;;3.37;0.87;;;11.10;99.90;;;;;;6348226;22;20045;-82
2023/03/24 08:55:07;;;;;;;6.45;0.82;;;11.10;99.90;;;;;;6374369;22;20021;-81
2023/03/24 08:57:33;;;;;;;5.82;1.25;;;11.10;99.90;;;;;;6402602;22;20089;-82
2023/03/24 08:59:59;;;;;;;5.33;0.70;;;11.20;99.90;;;;;;6348089;22;20064;-81
2023/03/24 09:02:25;;;;;;;6.77;1.30;;;11.30;99.90;;;;;;6402288;22;20079;-81
2023/03/24 09:04:53;;;;;;;5.22;0.65;;;11.30;99.90;;;;;;6373991;22;20010;-85
2023/03/24 09:07:19;;;;;;;1.95;0.60;;;11.30;99.90;;;;;;6374540;22;20096;-86
2023/03/24 09:09:45;;;;;;;5.95;1.00;;;11.40;99.90;;;;;;6224291;22;20054;-84
2023/03/24 09:12:11;;;;;;;6.97;0.70;;;11.40;99.90;;;;;;6213381;22;20400;-84
2023/03/24 09:14:36;;;;;;;5.37;1.07;;;11.50;99.90;;;;;;6188082;23;20055;-82
2023/03/24 09:17:02;;;;;;;9.57;1.33;;;11.50;99.90;;;;;;6238857;23;20046;-85
2023/03/24 09:19:28;;;;;;;5.73;1.20;;;11.50;99.90;;;;;;6238136;22;20016;-84
2023/03/24 09:21:53;;;;;;;7.67;1.10;;;11.60;99.90;;;;;;6239042;22;20039;-84
2023/03/24 09:24:19;;;;;;;6.43;1.00;;;11.70;99.90;;;;;;6239241;22;20091;-82
2023/03/24 09:26:45;;;;;;;7.40;0.83;;;11.80;99.90;;;;;;6240306;22;20022;-88
2023/03/24 09:29:11;;;;;;;5.07;2.00;;;11.80;99.90;;;;;;6215160;23;20052;-82
2023/03/24 09:31:36;;;;;;;5.13;1.07;;;11.80;99.90;;;;;;6240085;22;20022;-85
2023/03/24 09:34:02;;;;;;;4.00;0.90;;;11.80;99.90;;;;;;6241654;22;20016;-81
2023/03/24 09:36:28;;;;;;;7.78;0.85;;;11.70;99.90;;;;;;6240729;23;20383;-82
2023/03/24 09:38:53;;;;;;;5.63;0.80;;;11.70;99.90;;;;;;6240139;23;20043;-82
2023/03/24 09:41:38;;;;;;;4.03;0.80;;;11.60;99.90;;;;;;6214954;22;20341;-84
2023/03/24 09:44:30;;;;;;;3.70;1.55;;;11.50;99.90;;;;;;6240397;23;20016;-84
2023/03/24 09:47:03;;;;;;;8.48;1.05;;;11.50;99.90;;;;;;6215086;23;20150;-83
2023/03/24 09:49:43;;;;;;;5.85;0.80;;;11.60;99.90;;;;;;6215317;23;20051;-87
2023/03/24 09:52:13;;;;;;;5.47;0.90;;;11.70;99.90;;;;;;6242166;23;20020;-92
2023/03/24 09:54:57;;;;;;;9.35;1.30;;;11.70;99.90;;;;;;6216861;23;20018;-92
2023/03/24 09:57:27;;;;;;;5.80;1.15;;;11.80;99.90;;;;;;6215312;22;20016;-88
2023/03/24 09:59:53;;;;;;;3.50;0.57;;;11.80;99.90;;;;;;6240142;23;20019;-89
2023/03/24 10:02:20;;;;;;;5.30;0.80;;;11.90;99.90;;;;;;6215694;22;20099;-86
2023/03/24 10:04:47;;;;;;;7.90;1.27;;;11.90;99.90;;;;;;6240182;23;20028;-86
2023/03/24 10:07:16;;;;;;;;;;;12.00;99.90;;;;;;6241307;23;20012;-91
2023/03/24 10:09:47;;;;;;;4.32;0.82;;;12.00;99.90;;;;;;6215329;23;19915;-87
2023/03/24 10:12:36;;;;;;;4.20;1.08;;;12.10;99.90;;;;;;6241215;23;20075;-92
2023/03/24 10:15:18;;;;;;;6.35;0.80;;;12.20;99.90;;;;;;6240765;23;20105;-88
2023/03/24 10:18:11;;;;;;;3.45;0.65;;;12.30;99.90;;;;;;6214634;23;20069;-93
2023/03/24 10:25:58;;;;;;;6.55;0.88;;;12.70;99.90;;;;;;6278486;22;20018;-95
2023/03/24 10:28:49;;;;;;;3.80;0.70;;;12.70;99.90;;;;;;6346286;22;20070;-93
2023/03/24 10:31:18;;;;;;;6.32;1.50;;;12.60;99.90;;;;;;6358422;22;20018;-90
2023/03/24 10:33:45;;;;;;;2.45;0.52;;;12.60;99.90;;;;;;6379893;22;20010;-84
2023/03/24 10:36:19;;;;;;;;;;;12.50;99.90;;;;;;6376052;22;20518;-84
2023/03/24 10:38:45;;;;;;;6.82;0.93;;;12.50;99.90;;;;;;6378781;22;19956;-89
2023/03/24 10:41:31;;;;;;;4.15;0.88;;;12.50;99.90;;;;;;6327908;22;20014;-94
2023/03/24 10:43:59;;;;;;;4.68;0.65;;;12.70;99.90;;;;;;6354675;22;20119;-94
2023/03/24 10:46:28;;;;;;;4.63;1.10;;;12.80;99.90;;;;;;6327074;22;20395;-87
2023/03/24 10:49:08;;;;;;;4.35;0.95;;;13.00;99.90;;;;;;6355653;22;20543;-87
2023/03/24 10:51:36;;;;;;;4.65;0.52;;;13.10;99.90;;;;;;6380245;22;20014;-87
2023/03/24 10:54:14;;;;;;;3.72;0.70;;;13.10;99.90;;;;;;6381275;22;20052;-87
2023/03/24 10:56:44;;;;;;;3.67;0.77;;;13.00;99.90;;;;;;6351617;22;20061;-83
2023/03/24 10:59:26;;;;;;;4.88;0.60;;;12.80;99.90;;;;;;6382598;22;20454;-89
2023/03/24 11:01:59;;;;;;;4.75;0.60;;;12.60;99.90;;;;;;6409420;22;20123;-86
2023/03/24 11:04:25;;;;;;;7.68;1.00;;;12.50;99.90;;;;;;6407560;22;20006;-87
2023/03/24 11:07:13;;;;;;;3.90;0.70;;;12.60;99.90;;;;;;6352760;22;20018;-92
2023/03/24 11:09:44;;;;;;;5.40;0.82;;;12.70;99.90;;;;;;6376666;22;20014;-93
2023/03/24 11:12:26;;;;;;;5.22;0.60;;;12.70;99.90;;;;;;6405633;22;20496;-85
2023/03/24 11:14:59;;;;;;;4.82;0.63;;;12.60;99.90;;;;;;6377558;22;20070;-94
2023/03/24 11:17:26;;;;;;;5.47;0.80;;;12.50;99.90;;;;;;6377797;22;20017;-85
2023/03/24 11:20:00;;;;;;;4.57;0.60;;;12.40;99.90;;;;;;6405807;22;20018;-93
2023/03/24 11:22:26;;;;;;;4.78;0.90;;;12.30;99.90;;;;;;6378992;22;20022;-90
2023/03/24 11:24:55;;;;;;;7.05;0.73;;;12.40;99.90;;;;;;6406172;22;20083;-93
2023/03/24 11:27:21;;;;;;;5.88;0.80;;;12.30;99.90;;;;;;6288845;22;20014;-85
2023/03/24 11:29:54;;;;;;;5.88;1.20;;;12.30;99.90;;;;;;6271737;22;20492;-88
2023/03/24 11:32:28;;;;;;;5.00;0.80;;;12.20;99.90;;;;;;6405063;22;20018;-92
2023/03/24 11:35:22;;;;;;;4.88;0.77;;;12.10;99.90;;;;;;6245877;22;20018;-94
2023/03/24 11:38:28;;;;;;;5.82;0.70;;;12.20;99.90;;;;;;6246807;22;20017;-86
2023/03/24 11:40:57;;;;;;;6.15;1.13;;;12.40;99.90;;;;;;6265781;22;20021;-86
2023/03/24 11:43:26;;;;;;;4.90;0.73;;;12.60;99.90;;;;;;6242095;22;20014;-87
2023/03/24 11:46:15;;;;;;;4.90;0.70;;;12.70;99.90;;;;;;6216750;22;20013;-86
2023/03/24 11:48:51;;;;;;;5.72;1.02;;;12.90;99.90;;;;;;6241820;22;20403;-88
2023/03/24 11:51:33;;;;;;;5.43;0.73;;;13.00;99.90;;;;;;6267408;22;20014;-84
2023/03/24 11:54:10;;;;;;;3.53;0.55;;;13.10;99.90;;;;;;6242652;22;20017;-85
2023/03/24 11:56:46;;;;;;;6.35;0.70;;;13.40;99.90;;;;;;6266147;22;20096;-85
2023/03/24 11:59:38;;;;;;;3.08;0.50;;;13.60;99.90;;;;;;6241246;22;20014;-81
2023/03/24 12:02:07;;;;;;;3.60;0.70;;;13.60;99.90;;;;;;6265383;22;20089;-88
2023/03/24 12:04:45;;;;;;;4.07;0.40;;;13.60;99.90;;;;;;6241479;22;20014;-82
2023/03/24 12:07:32;;;;;;;3.65;0.68;;;13.60;99.90;;;;;;6264637;22;20013;-81
2023/03/24 12:10:05;;;;;;;2.90;0.40;;;13.80;99.90;;;;;;6266699;22;20018;-82
2023/03/24 12:12:50;;;;;;;7.15;0.85;;;13.90;99.90;;;;;;6265735;22;20378;-82
2023/03/24 12:15:36;;;;;;;2.97;0.60;;;14.00;99.90;;;;;;6266856;22;20024;-85
2023/03/24 12:18:18;;;;;;;4.38;0.60;;;14.20;99.90;;;;;;6267066;22;20075;-82
2023/03/24 12:20:53;;;;;;;6.30;0.60;;;14.30;99.90;;;;;;6266578;22;20018;-81
2023/03/24 12:23:33;;;;;;;5.32;0.70;;;14.40;99.90;;;;;;6267097;22;20355;-82
2023/03/24 12:26:42;;;;;;;3.95;0.60;;;14.50;99.90;;;;;;6400887;22;20507;-81
2023/03/24 12:29:31;;;;;;;6.15;0.55;;;14.60;99.90;;;;;;6354404;22;20451;-83
2023/03/24 12:32:02;;;;;;;3.65;0.63;;;14.70;99.90;;;;;;6266573;22;20089;-83
2023/03/24 12:35:02;;;;;;;4.20;0.52;;;14.60;99.90;;;;;;6267604;22;20067;-82
2023/03/24 12:38:16;;;;;;;3.95;0.82;;;14.30;99.90;;;;;;6241228;22;20010;-84
2023/03/24 12:40:59;;;;;;;4.63;1.00;;;14.00;99.90;;;;;;6353774;22;20385;-85
2023/03/24 12:46:50;;;;;;;7.00;0.65;;;13.50;99.90;;;;;;6401064;22;20022;-88
2023/03/24 12:49:49;;;;;;;5.82;0.73;;;13.40;99.90;;;;;;6401940;22;20041;-90
2023/03/24 12:52:50;;;;;;;5.38;0.60;;;13.50;99.90;;;;;;6266969;22;20078;-86
2023/03/24 12:55:40;;;;;;;3.58;0.35;;;13.50;99.90;;;;;;6324410;22;20041;-89
2023/03/24 12:58:25;;;;;;;4.40;0.50;;;13.40;99.90;;;;;;6240510;22;20366;-87
2023/03/24 13:01:19;;;;;;;3.42;0.50;;;13.40;99.90;;;;;;6268408;22;20498;-88
2023/03/24 13:04:09;;;;;;;4.53;0.57;;;13.30;99.90;;;;;;6268761;22;20050;-88
2023/03/24 13:06:57;;;;;;;4.30;0.60;;;13.30;99.90;;;;;;6269460;22;20009;-83
2023/03/24 13:09:45;;;;;;;3.90;1.05;;;13.20;99.90;;;;;;6268595;22;20062;-93
2023/03/24 13:12:19;;;;;;;;;;;13.20;99.90;;;;;;6269605;22;20013;-88
2023/03/24 13:14:50;;;;;;;2.10;0.47;;;13.40;99.90;;;;;;6270652;22;20314;-85
2023/03/24 13:17:51;;;;;;;6.50;1.15;;;13.60;99.90;;;;;;6246412;22;20021;-89
2023/03/24 13:20:43;;;;;;;4.93;0.50;;;13.80;99.90;;;;;;6326110;22;20010;-91
2023/03/24 13:27:24;;;;;;;3.78;0.50;;;14.00;99.90;;;;;;6407290;22;20012;-86
2023/03/24 13:30:14;;;;;;;4.78;0.82;;;14.00;99.90;;;;;;6269758;22;20009;-88
2023/03/24 13:32:51;;;;;;;2.35;0.60;;;14.00;99.90;;;;;;6270509;22;20072;-85
2023/03/24 13:35:37;;;;;;;;;;;13.90;99.90;;;;;;6243816;22;20014;-87
2023/03/24 13:38:22;;;;;;;4.30;0.95;;;13.80;99.90;;;;;;6269372;22;19913;-94
2023/03/24 13:40:53;;;;;;;3.40;0.50;;;13.70;99.90;;;;;;6268214;22;20102;-90
2023/03/24 13:43:31;;;;;;;8.25;0.90;;;13.80;99.90;;;;;;6243083;22;20022;-84
2023/03/24 13:46:01;;;;;;;5.00;0.52;;;13.70;99.90;;;;;;6404675;22;20014;-95
2023/03/24 13:48:32;;;;;;;2.65;0.80;;;13.50;99.90;;;;;;6245236;22;20012;-93
2023/03/24 13:51:20;;;;;;;5.80;0.63;;;13.50;99.90;;;;;;6244548;23;20024;-89
2023/03/24 13:54:14;;;;;;;1.70;0.35;;;13.50;99.90;;;;;;6218988;22;20026;-93
2023/03/24 13:57:06;;;;;;;3.10;0.60;;;13.60;99.90;;;;;;6244989;23;20065;-91
2023/03/24 13:59:32;;;;;;;6.82;0.80;;;13.60;99.60;;;;;;6217953;22;20022;-91
2023/03/24 14:02:27;;;;;;;3.42;0.95;;;13.70;99.90;;;;;;6245502;23;20099;-93
2023/03/24 14:05:26;;;;;;;4.28;0.80;;;13.70;99.90;;;;;;6244046;22;20101;-92
2023/03/24 14:08:03;;;;;;;4.28;0.80;;;13.80;99.90;;;;;;6241723;22;20024;-90
2023/03/24 14:11:03;;;;;;;4.97;0.50;;;13.80;99.90;;;;;;6244089;22;20087;-94
2023/03/24 14:14:20;;;;;;;5.35;0.73;;;13.70;99.90;;;;;;6244262;23;20020;-87
2023/03/24 14:17:05;;;;;;;4.47;0.40;;;13.50;99.90;;;;;;6262381;22;20449;-89